Time;durP1;ratioP1;P1;durP2;ratioP2;P2;SDS_P1;SDS_P2;PMS_P1;PMS_P2;Temp;Humidity;BMP_temperature;BMP_pressure;BME280_temperature;BME280_humidity;BME280_pressure;Samples;Min_cycle;Max_cycle;Signal;HPM_P1;HPM_P2
2023/06/16 00:01:22;;;;;;;3.93;3.20;;;14.30;1.00;;;;;;5005842;28;20202;-82
2023/06/16 00:03:49;;;;;;;4.20;3.23;;;14.50;1.00;;;;;;5006863;28;20175;-82
2023/06/16 00:06:16;;;;;;;4.50;3.60;;;14.30;1.00;;;;;;5025581;28;20204;-83
2023/06/16 00:08:45;;;;;;;4.20;3.53;;;14.20;1.00;;;;;;5005541;28;20262;-82
2023/06/16 00:11:14;;;;;;;4.07;3.20;;;14.20;1.00;;;;;;5023881;28;20301;-83
2023/06/16 00:13:41;;;;;;;4.07;3.53;;;14.00;1.00;;;;;;5005612;28;20210;-83
2023/06/16 00:16:06;;;;;;;5.37;3.40;;;13.90;1.00;;;;;;5024370;28;20163;-82
2023/06/16 00:18:32;;;;;;;3.97;3.20;;;13.80;1.00;;;;;;5006198;28;20222;-82
2023/06/16 00:21:02;;;;;;;4.77;3.20;;;13.80;1.00;;;;;;5006855;28;20177;-82
2023/06/16 00:23:27;;;;;;;4.03;3.63;;;13.60;1.00;;;;;;5006921;28;20205;-82
2023/06/16 00:25:53;;;;;;;4.50;3.53;;;13.50;1.00;;;;;;5024893;28;20272;-82
2023/06/16 00:28:19;;;;;;;4.00;3.50;;;13.40;99.90;;;;;;5025717;28;20194;-83
2023/06/16 00:30:46;;;;;;;4.20;3.37;;;13.50;99.90;;;;;;5006521;28;20267;-83
2023/06/16 00:33:15;;;;;;;5.90;3.60;;;13.40;1.00;;;;;;5006221;28;20202;-82
2023/06/16 00:35:40;;;;;;;4.33;3.50;;;13.60;1.00;;;;;;5007179;28;20167;-83
2023/06/16 00:38:06;;;;;;;4.10;3.30;;;13.60;99.90;;;;;;5025708;28;20188;-83
2023/06/16 00:40:32;;;;;;;3.90;3.50;;;13.50;1.00;;;;;;5025644;28;20197;-82
2023/06/16 00:43:01;;;;;;;4.00;3.60;;;13.40;1.00;;;;;;5026044;28;20191;-82
2023/06/16 00:45:27;;;;;;;3.83;3.30;;;13.50;1.00;;;;;;5026795;28;20175;-82
2023/06/16 00:47:53;;;;;;;4.83;3.40;;;13.60;1.00;;;;;;5026485;28;20190;-84
2023/06/16 00:50:19;;;;;;;5.90;3.43;;;13.60;1.00;;;;;;5026972;28;20198;-83
2023/06/16 00:52:45;;;;;;;3.80;3.23;;;13.70;99.90;;;;;;5026764;28;20195;-83
2023/06/16 00:55:12;;;;;;;4.03;3.20;;;13.70;1.00;;;;;;5025202;28;20167;-84
2023/06/16 00:57:39;;;;;;;4.47;3.37;;;13.60;99.90;;;;;;5027081;28;20218;-83
2023/06/16 01:00:12;;;;;;;4.33;3.40;;;13.50;99.90;;;;;;5008914;28;20182;-83
2023/06/16 01:02:38;;;;;;;4.57;3.23;;;13.20;99.90;;;;;;5008557;28;20314;-84
2023/06/16 01:05:07;;;;;;;5.00;3.53;;;13.30;1.00;;;;;;5008883;28;20266;-84
2023/06/16 01:07:50;;;;;;;5.00;3.47;;;13.10;1.00;;;;;;5028409;28;20195;-83
2023/06/16 01:10:27;;;;;;;4.57;3.70;;;13.00;98.90;;;;;;5028716;28;20226;-82
2023/06/16 01:13:06;;;;;;;4.97;3.40;;;13.10;99.90;;;;;;5010656;28;20187;-83
2023/06/16 01:15:32;;;;;;;4.87;3.40;;;13.10;1.00;;;;;;5028948;28;20158;-82
2023/06/16 01:17:59;;;;;;;4.00;3.60;;;13.10;99.90;;;;;;5010290;28;20210;-83
2023/06/16 01:20:40;;;;;;;5.80;3.63;;;13.10;94.40;;;;;;5010581;28;20679;-82
2023/06/16 01:23:29;;;;;;;4.30;3.70;;;13.30;1.00;;;;;;5011189;28;20167;-82
2023/06/16 01:25:58;;;;;;;4.20;3.27;;;13.20;61.20;;;;;;5029650;28;20242;-83
2023/06/16 01:28:25;;;;;;;4.40;3.60;;;13.30;1.00;;;;;;5011918;28;20197;-83
2023/06/16 01:30:52;;;;;;;4.20;3.47;;;13.40;1.00;;;;;;5012473;28;20200;-84
2023/06/16 01:33:20;;;;;;;4.47;3.50;;;13.40;1.00;;;;;;5030331;28;20202;-82
2023/06/16 01:35:47;;;;;;;6.27;4.00;;;13.40;1.00;;;;;;5012348;28;20170;-83
2023/06/16 01:38:14;;;;;;;4.37;3.67;;;13.50;1.00;;;;;;5030881;28;20253;-84
2023/06/16 01:40:40;;;;;;;5.87;3.93;;;13.40;1.00;;;;;;5031219;28;20589;-83
2023/06/16 01:43:08;;;;;;;5.00;3.73;;;13.50;1.00;;;;;;5013995;28;20553;-83
2023/06/16 01:45:34;;;;;;;4.57;3.57;;;13.50;1.00;;;;;;5014418;28;20175;-83
2023/06/16 01:48:00;;;;;;;3.83;3.30;;;13.60;1.00;;;;;;5032226;28;20284;-83
2023/06/16 01:50:26;;;;;;;3.80;3.40;;;13.70;31.00;;;;;;5013976;28;20171;-82
2023/06/16 01:52:51;;;;;;;7.67;3.90;;;13.80;1.00;;;;;;5031286;28;20210;-84
2023/06/16 01:55:17;;;;;;;4.43;3.83;;;13.90;1.00;;;;;;5015991;28;20187;-83
2023/06/16 01:57:43;;;;;;;3.70;3.30;;;13.90;1.00;;;;;;5015556;28;20211;-83
2023/06/16 02:00:15;;;;;;;4.80;3.80;;;13.80;1.00;;;;;;5033981;28;20163;-84
2023/06/16 02:02:49;;;;;;;6.80;4.07;;;13.70;1.00;;;;;;5043732;28;20209;-86
2023/06/16 02:05:20;;;;;;;3.80;3.37;;;13.60;1.00;;;;;;5057480;28;20185;-83
2023/06/16 02:07:48;;;;;;;4.27;3.60;;;13.60;1.00;;;;;;5043061;28;20200;-83
2023/06/16 02:10:15;;;;;;;5.80;3.80;;;13.60;29.80;;;;;;5043491;28;20174;-82
2023/06/16 02:12:41;;;;;;;5.87;3.50;;;13.60;99.90;;;;;;5061872;28;20231;-83
2023/06/16 02:15:08;;;;;;;5.30;3.80;;;13.60;99.90;;;;;;5061803;28;20230;-83
2023/06/16 02:17:33;;;;;;;5.23;3.70;;;13.60;42.80;;;;;;5042907;28;20660;-82
2023/06/16 02:19:59;;;;;;;5.33;3.87;;;13.70;1.00;;;;;;5061450;28;20203;-84
2023/06/16 02:22:25;;;;;;;5.40;3.60;;;13.70;1.00;;;;;;5061389;28;20223;-83
2023/06/16 02:24:50;;;;;;;6.07;3.70;;;13.70;1.00;;;;;;5062009;28;20181;-83
2023/06/16 02:27:16;;;;;;;5.73;4.10;;;13.70;99.90;;;;;;5043530;28;20204;-82
2023/06/16 02:29:42;;;;;;;3.97;3.57;;;13.70;1.00;;;;;;5044582;28;20173;-82
2023/06/16 02:32:07;;;;;;;4.80;3.73;;;13.80;1.00;;;;;;5062423;28;20178;-81
2023/06/16 02:34:34;;;;;;;3.90;3.50;;;13.80;99.90;;;;;;5043637;28;20204;-82
2023/06/16 02:37:00;;;;;;;4.77;3.83;;;13.70;99.90;;;;;;5063236;28;20292;-83
2023/06/16 02:39:26;;;;;;;4.27;3.53;;;13.70;99.90;;;;;;5044555;28;20197;-83
2023/06/16 02:41:51;;;;;;;5.07;4.07;;;13.60;1.00;;;;;;5061881;28;20169;-84
2023/06/16 02:44:17;;;;;;;4.13;3.73;;;13.60;1.00;;;;;;5063145;28;20181;-82
2023/06/16 02:46:43;;;;;;;4.27;3.80;;;13.40;1.00;;;;;;5045240;28;20184;-83
2023/06/16 02:49:08;;;;;;;4.97;3.83;;;13.40;99.90;;;;;;5044631;28;20227;-83
2023/06/16 02:51:34;;;;;;;4.77;3.67;;;13.40;1.00;;;;;;5044771;28;20240;-82
2023/06/16 02:54:00;;;;;;;4.03;3.53;;;13.50;1.00;;;;;;5045242;28;20212;-83
2023/06/16 02:56:28;;;;;;;5.40;4.20;;;13.60;99.90;;;;;;5045554;28;20172;-83
2023/06/16 02:58:55;;;;;;;4.67;3.83;;;13.60;99.90;;;;;;5043949;28;20209;-83
2023/06/16 03:01:24;;;;;;;3.73;3.43;;;13.70;99.90;;;;;;5063681;28;20196;-83
2023/06/16 03:03:52;;;;;;;4.47;3.73;;;13.70;1.00;;;;;;5045444;28;20181;-82
2023/06/16 03:06:19;;;;;;;4.93;3.90;;;13.70;1.00;;;;;;5064079;28;20655;-83
2023/06/16 03:08:45;;;;;;;4.63;3.80;;;13.80;1.00;;;;;;5045591;28;20200;-82
2023/06/16 03:11:11;;;;;;;4.37;3.70;;;13.80;1.00;;;;;;5045804;28;20201;-83
2023/06/16 03:13:37;;;;;;;4.37;3.70;;;13.80;1.00;;;;;;5045798;28;20297;-82
2023/06/16 03:16:03;;;;;;;3.93;3.57;;;13.60;1.00;;;;;;5046261;28;20174;-83
2023/06/16 03:18:29;;;;;;;5.27;3.70;;;13.50;99.90;;;;;;5064142;28;20213;-82
2023/06/16 03:20:54;;;;;;;4.17;3.73;;;13.40;99.90;;;;;;5039570;28;20256;-82
2023/06/16 03:23:20;;;;;;;4.20;3.80;;;13.30;1.00;;;;;;5058902;28;20550;-83
2023/06/16 03:25:46;;;;;;;4.50;3.73;;;13.30;1.00;;;;;;5058252;28;20205;-83
2023/06/16 03:28:12;;;;;;;4.00;3.43;;;13.10;1.00;;;;;;5059468;28;20198;-82
2023/06/16 03:30:38;;;;;;;4.47;3.90;;;13.10;1.00;;;;;;5040337;28;20177;-82
2023/06/16 03:33:03;;;;;;;4.40;3.83;;;13.00;99.90;;;;;;5039976;28;20593;-84
2023/06/16 03:35:29;;;;;;;5.67;4.10;;;13.00;99.90;;;;;;5059810;28;20184;-81
2023/06/16 03:37:55;;;;;;;4.10;3.70;;;13.00;99.90;;;;;;5058993;28;20228;-83
2023/06/16 03:40:20;;;;;;;4.63;3.87;;;12.90;1.00;;;;;;5059631;28;20536;-83
2023/06/16 03:42:46;;;;;;;4.57;3.70;;;12.80;1.00;;;;;;5040824;28;20644;-83
2023/06/16 03:45:11;;;;;;;5.53;4.27;;;12.80;99.90;;;;;;5040795;28;20570;-82
2023/06/16 03:47:37;;;;;;;5.37;4.20;;;12.90;99.90;;;;;;5040521;28;20260;-82
2023/06/16 03:50:03;;;;;;;5.07;4.00;;;12.90;99.90;;;;;;5059880;28;20204;-82
2023/06/16 03:52:28;;;;;;;5.13;3.67;;;13.10;70.80;;;;;;5041186;28;20209;-84
2023/06/16 03:54:54;;;;;;;4.33;3.87;;;13.00;57.50;;;;;;5061168;28;20190;-83
2023/06/16 03:57:20;;;;;;;4.20;3.70;;;13.10;99.90;;;;;;5041568;28;20220;-82
2023/06/16 03:59:45;;;;;;;5.47;3.93;;;13.00;90.20;;;;;;5041816;28;20221;-82
2023/06/16 04:02:12;;;;;;;4.03;3.60;;;13.00;1.00;;;;;;5060252;28;20181;-84
2023/06/16 04:04:37;;;;;;;5.77;3.80;;;13.00;1.00;;;;;;5041735;28;20193;-84
2023/06/16 04:07:05;;;;;;;6.33;4.10;;;13.10;1.00;;;;;;5041826;28;20235;-82
2023/06/16 04:09:30;;;;;;;5.60;4.40;;;13.10;99.90;;;;;;5042462;28;20196;-82
2023/06/16 04:11:57;;;;;;;4.40;4.00;;;13.10;50.30;;;;;;5042696;28;20579;-82
2023/06/16 04:14:23;;;;;;;4.50;4.00;;;13.00;1.00;;;;;;5042494;28;20198;-81
2023/06/16 04:16:48;;;;;;;5.13;4.23;;;12.90;1.00;;;;;;5065208;28;20174;-82
2023/06/16 04:19:15;;;;;;;4.93;3.90;;;12.90;1.00;;;;;;5047515;28;20177;-84
2023/06/16 04:21:41;;;;;;;5.57;3.70;;;13.00;1.00;;;;;;5046928;28;20174;-82
2023/06/16 04:24:07;;;;;;;5.03;3.87;;;12.90;1.00;;;;;;5047161;28;20180;-82
2023/06/16 04:26:33;;;;;;;6.33;3.70;;;13.00;9.00;;;;;;5047755;28;20177;-81
2023/06/16 04:29:03;;;;;;;4.57;4.00;;;12.80;99.90;;;;;;5047460;28;20184;-82
2023/06/16 04:31:31;;;;;;;5.70;4.10;;;12.80;1.00;;;;;;5047702;28;20233;-83
2023/06/16 04:33:58;;;;;;;4.90;4.20;;;12.70;1.00;;;;;;5047621;28;20207;-82
2023/06/16 04:36:25;;;;;;;6.50;4.00;;;12.80;99.90;;;;;;5047649;28;20173;-83
2023/06/16 04:38:52;;;;;;;6.03;3.97;;;12.90;1.00;;;;;;5067842;28;20709;-82
2023/06/16 04:41:17;;;;;;;6.00;4.20;;;13.00;99.90;;;;;;5048464;28;20157;-83
2023/06/16 04:43:43;;;;;;;4.23;3.83;;;13.00;1.00;;;;;;5068135;28;20172;-82
2023/06/16 04:46:08;;;;;;;5.73;4.07;;;13.00;12.40;;;;;;5048809;28;20553;-85
2023/06/16 04:48:35;;;;;;;5.10;3.93;;;13.10;1.00;;;;;;5049783;28;20198;-83
2023/06/16 04:51:00;;;;;;;6.00;4.07;;;13.30;1.00;;;;;;5049824;28;20211;-82
2023/06/16 04:53:27;;;;;;;5.77;4.33;;;13.20;99.90;;;;;;5050233;28;20198;-83
2023/06/16 04:55:52;;;;;;;5.77;4.37;;;13.30;1.00;;;;;;5069175;28;20169;-82
2023/06/16 04:58:18;;;;;;;5.80;4.20;;;13.30;57.30;;;;;;5049762;28;20254;-82
2023/06/16 05:00:43;;;;;;;4.40;4.00;;;13.30;78.90;;;;;;5050795;28;20180;-83
2023/06/16 05:03:10;;;;;;;6.83;4.57;;;13.40;1.00;;;;;;5069917;28;20188;-83
2023/06/16 05:05:36;;;;;;;6.20;4.50;;;13.40;1.00;;;;;;5069905;28;20203;-84
2023/06/16 05:08:02;;;;;;;4.60;4.17;;;13.50;1.00;;;;;;5070305;28;20193;-83
2023/06/16 05:10:27;;;;;;;5.10;4.23;;;13.50;1.00;;;;;;5069988;28;20227;-83
2023/06/16 05:12:53;;;;;;;5.43;4.27;;;13.60;99.90;;;;;;5069475;28;20258;-83
2023/06/16 05:15:18;;;;;;;5.43;4.63;;;13.60;1.00;;;;;;5052403;28;20185;-84
2023/06/16 05:17:44;;;;;;;6.03;4.70;;;13.80;99.90;;;;;;5052536;28;20190;-83
2023/06/16 05:20:10;;;;;;;4.90;4.40;;;13.90;5.20;;;;;;5053773;28;20323;-83
2023/06/16 05:22:36;;;;;;;6.43;4.57;;;13.90;1.00;;;;;;5071653;28;20181;-83
2023/06/16 05:25:01;;;;;;;4.97;4.23;;;14.10;99.90;;;;;;5053552;28;20177;-84
2023/06/16 05:27:27;;;;;;;5.53;4.50;;;14.20;99.90;;;;;;5069583;28;20194;-84
2023/06/16 05:29:54;;;;;;;5.43;4.90;;;14.20;1.00;;;;;;5051815;28;20555;-86
2023/06/16 05:32:21;;;;;;;5.57;5.00;;;14.20;1.00;;;;;;5071287;28;20182;-85
2023/06/16 05:34:47;;;;;;;5.27;4.77;;;14.20;1.00;;;;;;5073518;28;20184;-85
2023/06/16 05:37:17;;;;;;;6.03;5.00;;;14.30;99.90;;;;;;5072255;28;20227;-87
2023/06/16 05:39:43;;;;;;;6.83;5.30;;;14.30;1.00;;;;;;5053547;28;20197;-82
2023/06/16 05:42:11;;;;;;;5.50;5.00;;;14.40;99.90;;;;;;5044712;28;20169;-81
2023/06/16 05:44:37;;;;;;;8.50;5.30;;;14.50;1.00;;;;;;5042242;28;20181;-79
2023/06/16 05:47:03;;;;;;;5.57;5.07;;;14.60;1.00;;;;;;5042737;28;20561;-82
2023/06/16 05:49:29;;;;;;;6.20;4.93;;;14.70;12.40;;;;;;5062752;28;20243;-81
2023/06/16 05:51:57;;;;;;;7.13;4.83;;;14.90;1.00;;;;;;5061951;28;20182;-82
2023/06/16 05:54:22;;;;;;;7.33;5.03;;;14.90;99.90;;;;;;5066647;28;20201;-84
2023/06/16 05:56:48;;;;;;;8.17;5.10;;;15.00;1.00;;;;;;5046667;28;20181;-84
2023/06/16 05:59:13;;;;;;;5.57;4.63;;;15.00;1.00;;;;;;5065228;28;20261;-84
2023/06/16 06:01:39;;;;;;;5.27;4.03;;;15.00;99.90;;;;;;5059518;28;20180;-79
2023/06/16 06:04:05;;;;;;;3.80;3.30;;;15.60;1.00;;;;;;5058544;28;20194;-79
2023/06/16 06:06:30;;;;;;;4.63;3.83;;;17.30;1.00;;;;;;5045681;28;20245;-80
2023/06/16 06:08:56;;;;;;;4.53;3.80;;;17.80;1.00;;;;;;5041786;28;20181;-78
2023/06/16 06:11:22;;;;;;;5.03;3.57;;;18.60;1.00;;;;;;5046897;28;20205;-79
2023/06/16 06:13:47;;;;;;;3.43;3.13;;;19.20;1.00;;;;;;5047473;28;20212;-80
2023/06/16 06:16:13;;;;;;;5.30;4.60;;;19.60;1.00;;;;;;5064307;28;20759;-79
2023/06/16 06:18:43;;;;;;;5.70;3.50;;;19.40;1.00;;;;;;5044513;28;20189;-79
2023/06/16 06:21:08;;;;;;;5.27;3.80;;;19.40;1.00;;;;;;5064860;28;20168;-80
2023/06/16 06:23:34;;;;;;;6.60;3.87;;;19.00;1.00;;;;;;5047816;28;20193;-79
2023/06/16 06:26:00;;;;;;;5.87;4.20;;;19.20;99.90;;;;;;5065188;28;20180;-79
2023/06/16 06:28:25;;;;;;;5.37;3.67;;;18.80;52.00;;;;;;5047387;28;20204;-79
2023/06/16 06:30:51;;;;;;;4.50;3.80;;;18.40;1.00;;;;;;5047132;28;20225;-81
2023/06/16 06:33:16;;;;;;;4.60;4.10;;;18.50;99.90;;;;;;5047101;28;20248;-79
2023/06/16 06:35:42;;;;;;;5.80;4.40;;;18.20;99.90;;;;;;5065299;28;20196;-79
2023/06/16 06:38:08;;;;;;;5.73;4.50;;;18.10;99.90;;;;;;5046627;28;20190;-80
2023/06/16 06:40:35;;;;;;;5.13;4.23;;;17.80;1.00;;;;;;5046390;28;20171;-78
2023/06/16 06:43:01;;;;;;;4.50;4.00;;;17.80;1.00;;;;;;5042320;28;20178;-81
2023/06/16 06:45:26;;;;;;;4.93;4.37;;;17.60;1.00;;;;;;5058854;28;20277;-80
2023/06/16 06:47:52;;;;;;;4.97;4.47;;;17.60;1.00;;;;;;5044030;28;20319;-78
2023/06/16 06:50:17;;;;;;;5.73;4.37;;;17.50;1.00;;;;;;5042198;28;20196;-81
2023/06/16 06:52:43;;;;;;;5.93;4.50;;;17.60;99.90;;;;;;5038400;28;20213;-78
2023/06/16 06:55:09;;;;;;;7.27;4.10;;;17.70;99.90;;;;;;5047878;28;20209;-79
2023/06/16 06:57:34;;;;;;;6.83;4.30;;;17.70;99.90;;;;;;5033543;28;20197;-79
2023/06/16 07:00:00;;;;;;;4.80;3.77;;;17.80;99.90;;;;;;5042513;28;20176;-79
2023/06/16 07:02:25;;;;;;;6.07;3.97;;;17.80;99.90;;;;;;5060714;28;20231;-79
2023/06/16 07:04:51;;;;;;;5.10;4.20;;;18.20;94.70;;;;;;5043297;28;20180;-79
2023/06/16 07:07:17;;;;;;;4.47;3.97;;;18.30;1.00;;;;;;5043433;28;20193;-78
2023/06/16 07:09:42;;;;;;;4.20;3.80;;;18.40;1.00;;;;;;5042829;28;20172;-80
2023/06/16 07:12:08;;;;;;;4.63;3.97;;;18.40;1.00;;;;;;5060013;28;20318;-76
2023/06/16 07:14:34;;;;;;;5.03;4.40;;;18.80;1.00;;;;;;5047233;28;20224;-79
2023/06/16 07:17:02;;;;;;;4.70;4.30;;;18.70;1.00;;;;;;5010113;28;20281;-78
2023/06/16 07:19:28;;;;;;;4.47;3.17;;;18.70;1.00;;;;;;5041320;28;20220;-79
2023/06/16 07:21:54;;;;;;;3.87;3.47;;;19.00;1.00;;;;;;5042783;28;20170;-79
2023/06/16 07:24:21;;;;;;;4.00;3.40;;;19.40;1.00;;;;;;5058274;28;20181;-80
2023/06/16 07:26:47;;;;;;;4.00;3.60;;;19.40;99.90;;;;;;5057859;28;20237;-78
2023/06/16 07:29:12;;;;;;;5.67;3.70;;;19.60;99.90;;;;;;5039611;28;20212;-76
2023/06/16 07:31:38;;;;;;;4.77;3.80;;;19.70;99.90;;;;;;5037610;28;20174;-77
2023/06/16 07:34:04;;;;;;;5.43;3.20;;;19.60;99.90;;;;;;5032874;28;20245;-78
2023/06/16 07:36:31;;;;;;;5.40;3.30;;;19.60;26.20;;;;;;5033906;28;20189;-79
2023/06/16 07:38:56;;;;;;;5.27;3.20;;;19.70;34.90;;;;;;5015404;28;20170;-76
2023/06/16 07:41:22;;;;;;;4.77;3.23;;;19.70;1.00;;;;;;5036298;28;20300;-78
2023/06/16 07:43:48;;;;;;;3.10;2.80;;;19.70;1.00;;;;;;5037099;28;20182;-78
2023/06/16 07:46:14;;;;;;;3.70;3.17;;;19.80;1.00;;;;;;5019813;28;20182;-78
2023/06/16 07:48:40;;;;;;;4.10;2.80;;;19.80;1.00;;;;;;5036304;28;20260;-77
2023/06/16 07:51:06;;;;;;;4.13;3.50;;;20.00;1.00;;;;;;5039111;28;20175;-77
2023/06/16 07:53:31;;;;;;;13.60;4.20;;;20.20;1.00;;;;;;5023272;28;20212;-78
2023/06/16 07:55:57;;;;;;;8.80;3.57;;;20.30;1.00;;;;;;5022671;28;20178;-78
2023/06/16 07:58:23;;;;;;;5.77;3.30;;;20.40;1.00;;;;;;5022577;28;20210;-79
2023/06/16 08:00:51;;;;;;;8.88;3.33;;;20.50;1.00;;;;;;5039722;28;20192;-78
2023/06/16 08:03:18;;;;;;;5.18;3.17;;;20.80;1.00;;;;;;5022397;28;20177;-78
2023/06/16 08:05:44;;;;;;;5.40;3.80;;;21.20;1.00;;;;;;5023009;28;20667;-78
2023/06/16 08:08:09;;;;;;;4.47;3.03;;;21.40;1.00;;;;;;5040345;28;20198;-78
2023/06/16 08:10:35;;;;;;;8.52;4.55;;;21.50;1.00;;;;;;5021762;28;20170;-79
2023/06/16 08:13:00;;;;;;;23.20;5.65;;;21.50;1.00;;;;;;5021842;28;20207;-78
2023/06/16 08:15:26;;;;;;;4.22;3.08;;;21.40;1.00;;;;;;5022459;28;20182;-78
2023/06/16 08:17:52;;;;;;;4.65;3.42;;;21.40;1.00;;;;;;5022417;28;20194;-78
2023/06/16 08:20:18;;;;;;;17.05;6.38;;;21.40;1.00;;;;;;5039125;28;20220;-78
2023/06/16 08:22:44;;;;;;;4.65;3.28;;;21.50;1.00;;;;;;5039557;28;20241;-78
2023/06/16 08:25:09;;;;;;;4.30;3.33;;;21.50;1.00;;;;;;5022183;28;20186;-79
2023/06/16 08:27:35;;;;;;;3.58;3.28;;;21.70;1.00;;;;;;5037778;28;20232;-77
2023/06/16 08:30:01;;;;;;;4.15;3.30;;;21.60;1.00;;;;;;5037544;28;20190;-77
2023/06/16 08:32:27;;;;;;;3.50;3.13;;;21.60;1.00;;;;;;5020182;28;20672;-77
2023/06/16 08:34:52;;;;;;;4.07;3.17;;;21.40;1.00;;;;;;5020341;28;20170;-77
2023/06/16 08:37:18;;;;;;;4.20;3.30;;;21.50;1.00;;;;;;5018879;28;20187;-78
2023/06/16 08:39:44;;;;;;;4.53;3.30;;;21.80;1.00;;;;;;5022294;28;20253;-78
2023/06/16 08:42:12;;;;;;;5.05;3.30;;;22.00;99.90;;;;;;5019806;28;20680;-78
2023/06/16 08:44:41;;;;;;;3.45;3.00;;;22.00;99.90;;;;;;5019607;28;20170;-78
2023/06/16 08:47:08;;;;;;;4.80;2.97;;;22.20;99.90;;;;;;5019792;28;20198;-77
2023/06/16 08:49:33;;;;;;;4.88;3.20;;;22.40;99.90;;;;;;5019566;28;20269;-78
2023/06/16 08:52:02;;;;;;;4.88;3.08;;;22.40;99.90;;;;;;5019595;28;20209;-77
2023/06/16 08:54:32;;;;;;;3.70;3.10;;;22.50;99.90;;;;;;5036491;28;20692;-77
2023/06/16 08:57:01;;;;;;;3.83;2.88;;;22.70;99.90;;;;;;5018916;28;20198;-77
2023/06/16 08:59:30;;;;;;;5.82;3.00;;;22.70;99.90;;;;;;5018491;28;20672;-77
2023/06/16 09:01:57;;;;;;;3.47;2.83;;;22.90;99.90;;;;;;5034763;28;20261;-77
2023/06/16 09:04:22;;;;;;;4.80;3.17;;;23.20;99.90;;;;;;5018649;28;20265;-78
2023/06/16 09:06:49;;;;;;;4.00;2.88;;;23.30;99.90;;;;;;5035875;28;20672;-76
2023/06/16 09:09:16;;;;;;;5.65;3.10;;;23.50;99.90;;;;;;5035870;28;20174;-78
2023/06/16 09:11:41;;;;;;;4.20;2.92;;;23.40;99.90;;;;;;5035700;28;20186;-78
2023/06/16 09:14:14;;;;;;;3.10;2.80;;;23.50;99.90;;;;;;5035635;28;20204;-78
2023/06/16 09:16:40;;;;;;;22.20;4.22;;;23.70;99.90;;;;;;5035793;28;20170;-78
2023/06/16 09:19:08;;;;;;;19.33;3.88;;;23.70;99.90;;;;;;5043380;28;20561;-78
2023/06/16 09:21:34;;;;;;;3.85;2.67;;;23.80;99.90;;;;;;5058961;28;20170;-79
2023/06/16 09:24:00;;;;;;;3.25;2.95;;;23.80;99.90;;;;;;5058755;28;20176;-79
2023/06/16 09:26:33;;;;;;;3.42;2.70;;;23.70;99.90;;;;;;5042282;28;20173;-79
2023/06/16 09:28:58;;;;;;;4.60;3.00;;;23.30;99.90;;;;;;5041501;28;20162;-78
2023/06/16 09:31:27;;;;;;;3.47;3.17;;;23.00;99.90;;;;;;5040848;28;20323;-79
2023/06/16 09:33:52;;;;;;;6.50;3.20;;;23.00;99.90;;;;;;5042748;28;20197;-78
2023/06/16 09:36:26;;;;;;;7.18;3.20;;;23.20;99.90;;;;;;5042526;28;20181;-79
2023/06/16 09:38:51;;;;;;;4.80;3.10;;;23.30;99.90;;;;;;5043643;28;20194;-79
2023/06/16 09:41:18;;;;;;;7.03;3.30;;;23.20;99.90;;;;;;5043121;28;20174;-78
2023/06/16 09:43:44;;;;;;;5.05;3.00;;;23.30;99.90;;;;;;5042535;28;20219;-79
2023/06/16 09:46:14;;;;;;;4.10;2.90;;;23.20;99.90;;;;;;5059164;28;20178;-79
2023/06/16 09:48:50;;;;;;;3.85;3.25;;;22.80;99.90;;;;;;5058093;28;20242;-78
2023/06/16 09:51:21;;;;;;;6.55;3.50;;;22.60;99.90;;;;;;5056434;28;20173;-77
2023/06/16 09:53:46;;;;;;;6.25;3.10;;;22.40;99.90;;;;;;5039171;28;20204;-79
2023/06/16 09:56:21;;;;;;;4.45;2.83;;;22.30;99.90;;;;;;5039336;28;20170;-77
2023/06/16 09:58:47;;;;;;;5.57;3.40;;;22.50;99.90;;;;;;5057040;28;20288;-79
2023/06/16 10:01:14;;;;;;;3.20;2.90;;;22.80;99.90;;;;;;5039488;28;20169;-78
2023/06/16 10:03:43;;;;;;;5.35;3.30;;;22.80;99.90;;;;;;5039033;28;20177;-79
2023/06/16 10:06:21;;;;;;;7.38;2.90;;;22.70;99.90;;;;;;5056967;28;20178;-78
2023/06/16 10:08:48;;;;;;;3.97;2.85;;;22.70;99.90;;;;;;5057082;28;20279;-79
2023/06/16 10:11:16;;;;;;;9.23;5.30;;;23.20;99.90;;;;;;5038933;28;20203;-79
2023/06/16 10:13:48;;;;;;;5.43;3.00;;;23.60;99.90;;;;;;5060724;28;20197;-79
2023/06/16 10:16:15;;;;;;;122.50;53.25;;;23.90;99.90;;;;;;5062147;28;20676;-80
2023/06/16 10:18:42;;;;;;;11.00;5.47;;;23.60;99.90;;;;;;5057573;28;20186;-79
2023/06/16 10:21:10;;;;;;;9.50;5.28;;;24.10;99.90;;;;;;5040290;28;20177;-82
2023/06/16 10:23:36;;;;;;;4.38;3.05;;;24.60;99.90;;;;;;5039339;28;20181;-80
2023/06/16 10:26:04;;;;;;;3.88;2.70;;;24.60;99.90;;;;;;5040101;28;20213;-81
2023/06/16 10:28:30;;;;;;;26.10;13.38;;;24.30;99.90;;;;;;5057610;28;20217;-82
2023/06/16 10:30:56;;;;;;;5.43;3.28;;;24.40;99.90;;;;;;5056539;28;20177;-81
2023/06/16 10:33:25;;;;;;;4.70;3.40;;;24.40;99.90;;;;;;5039262;28;20750;-82
2023/06/16 10:35:56;;;;;;;6.53;3.55;;;24.20;99.90;;;;;;5038459;28;20165;-83
2023/06/16 10:38:35;;;;;;;4.15;3.05;;;23.90;99.90;;;;;;5057634;28;20209;-82
2023/06/16 10:41:06;;;;;;;6.28;3.90;;;24.10;99.90;;;;;;5056921;28;20174;-83
2023/06/16 10:43:32;;;;;;;4.35;3.10;;;24.20;99.90;;;;;;5039111;28;20177;-81
2023/06/16 10:46:24;;;;;;;3.13;2.72;;;24.60;99.90;;;;;;5039493;28;20250;-80
2023/06/16 10:49:04;;;;;;;3.28;2.85;;;24.60;99.90;;;;;;5054928;28;20202;-80
2023/06/16 10:51:43;;;;;;;4.15;3.20;;;24.40;99.90;;;;;;5041001;28;20554;-80
2023/06/16 10:54:09;;;;;;;3.65;2.83;;;24.20;99.90;;;;;;5040410;28;20684;-80
2023/06/16 10:57:04;;;;;;;5.32;3.33;;;24.20;99.90;;;;;;5058655;28;20177;-79
2023/06/16 10:59:50;;;;;;;3.95;3.03;;;24.10;99.90;;;;;;5059491;28;20169;-79
2023/06/16 11:02:18;;;;;;;4.80;3.20;;;24.00;99.90;;;;;;5040308;28;20192;-80
2023/06/16 11:05:07;;;;;;;5.18;3.03;;;23.80;99.90;;;;;;5058556;28;20176;-80
2023/06/16 11:08:08;;;;;;;3.35;2.78;;;23.60;99.90;;;;;;5058515;28;20208;-81
2023/06/16 11:11:04;;;;;;;4.63;2.92;;;24.10;99.90;;;;;;5058206;28;20170;-80
2023/06/16 11:13:32;;;;;;;3.72;3.25;;;24.70;99.90;;;;;;5057448;28;20197;-81
2023/06/16 11:16:00;;;;;;;3.38;3.08;;;24.90;99.90;;;;;;5038559;28;20174;-81
2023/06/16 11:18:27;;;;;;;3.70;2.85;;;24.80;99.90;;;;;;5038593;28;20204;-80
2023/06/16 11:20:57;;;;;;;4.35;2.97;;;25.00;99.90;;;;;;5056454;28;20172;-81
2023/06/16 11:23:23;;;;;;;3.58;3.22;;;25.50;99.90;;;;;;5055915;28;20253;-81
2023/06/16 11:25:50;;;;;;;3.58;3.03;;;25.60;99.90;;;;;;5058110;28;20170;-81
2023/06/16 11:28:21;;;;;;;3.28;2.83;;;25.40;99.90;;;;;;5061297;28;20193;-81
2023/06/16 11:30:48;;;;;;;5.88;3.13;;;25.20;99.90;;;;;;5061170;28;20157;-81
2023/06/16 11:33:19;;;;;;;4.30;3.08;;;24.90;99.90;;;;;;5060598;28;20201;-81
2023/06/16 11:35:45;;;;;;;4.78;3.08;;;24.70;99.90;;;;;;5042578;28;20193;-80
2023/06/16 11:38:11;;;;;;;4.53;3.20;;;24.60;99.90;;;;;;5060927;28;20186;-81
2023/06/16 11:40:37;;;;;;;4.57;3.22;;;24.30;99.90;;;;;;5043000;28;20177;-80
2023/06/16 11:43:04;;;;;;;3.50;3.17;;;24.10;99.90;;;;;;5060725;28;20181;-81
2023/06/16 11:45:33;;;;;;;4.53;3.22;;;24.00;99.90;;;;;;5061092;28;20189;-81
2023/06/16 11:48:01;;;;;;;4.00;3.00;;;23.90;99.90;;;;;;5060881;28;20263;-81
2023/06/16 11:50:27;;;;;;;4.25;2.83;;;23.80;99.90;;;;;;5060467;28;20544;-81
2023/06/16 11:52:54;;;;;;;3.40;3.10;;;23.80;99.90;;;;;;5060376;28;20201;-82
2023/06/16 11:55:20;;;;;;;3.30;3.00;;;23.80;99.90;;;;;;5042891;28;20196;-81
2023/06/16 11:57:45;;;;;;;3.25;2.95;;;23.80;99.90;;;;;;5043060;28;20295;-82
2023/06/16 12:00:13;;;;;;;3.60;2.97;;;23.70;99.90;;;;;;5063674;22;20260;-79
2023/06/16 12:02:40;;;;;;;4.70;3.40;;;23.60;99.90;;;;;;5036553;28;20231;-79
2023/06/16 12:05:12;;;;;;;4.97;3.15;;;23.50;99.90;;;;;;5039361;28;20170;-79
2023/06/16 12:07:38;;;;;;;3.75;3.05;;;23.50;99.90;;;;;;5061501;28;20174;-79
2023/06/16 12:10:05;;;;;;;5.63;3.17;;;23.50;99.90;;;;;;5061250;28;20198;-79
2023/06/16 12:12:31;;;;;;;4.50;3.10;;;23.30;99.90;;;;;;5043825;28;20177;-81
2023/06/16 12:14:58;;;;;;;3.45;3.15;;;23.30;99.90;;;;;;5043544;28;20196;-79
2023/06/16 12:17:25;;;;;;;5.78;3.40;;;23.20;99.90;;;;;;5043644;28;20173;-79
2023/06/16 12:19:52;;;;;;;3.45;2.80;;;23.20;99.90;;;;;;5060785;28;20193;-79
2023/06/16 12:22:18;;;;;;;6.07;3.67;;;23.30;99.90;;;;;;5062204;28;20166;-79
2023/06/16 12:24:44;;;;;;;3.95;3.35;;;23.50;99.90;;;;;;5061607;28;20177;-79
2023/06/16 12:27:20;;;;;;;7.00;3.28;;;23.90;99.90;;;;;;5041711;28;20184;-81
2023/06/16 12:29:46;;;;;;;5.15;3.20;;;24.10;99.90;;;;;;5059318;28;20223;-80
2023/06/16 12:32:12;;;;;;;4.75;3.10;;;24.10;99.90;;;;;;5041306;28;20264;-81
2023/06/16 12:34:37;;;;;;;3.67;3.17;;;24.10;99.90;;;;;;5041053;28;20209;-81
2023/06/16 12:37:06;;;;;;;3.30;2.92;;;24.20;99.90;;;;;;5041215;28;20295;-81
2023/06/16 12:39:32;;;;;;;3.67;3.00;;;24.60;99.90;;;;;;5058969;28;20205;-81
2023/06/16 12:42:06;;;;;;;3.78;3.15;;;24.70;99.90;;;;;;5040744;28;20176;-81
2023/06/16 12:44:47;;;;;;;4.38;3.10;;;24.70;99.90;;;;;;5041410;28;20223;-82
2023/06/16 12:47:14;;;;;;;4.50;3.30;;;24.50;99.90;;;;;;5041026;28;20170;-80
2023/06/16 12:49:40;;;;;;;4.30;3.00;;;24.40;99.90;;;;;;5041040;28;20251;-80
2023/06/16 12:52:07;;;;;;;6.60;3.10;;;24.40;99.90;;;;;;5041006;28;20181;-81